Time;durP1;ratioP1;P1;durP2;ratioP2;P2;SDS_P1;SDS_P2;PMS_P1;PMS_P2;Temp;Humidity;BMP_temperature;BMP_pressure;BME280_temperature;BME280_humidity;BME280_pressure;Samples;Min_cycle;Max_cycle;Signal;HPM_P1;HPM_P2
2023/06/22 00:00:46;;;;;;;0.25;0.25;;;;;;;20.92;61.05;102050.97;5012716;28;20025;-78
2023/06/22 00:03:12;;;;;;;0.10;0.10;;;;;;;20.89;61.39;102045.72;5011760;28;20088;-78
2023/06/22 00:05:39;;;;;;;0.50;0.50;;;;;;;20.87;61.35;102053.84;5011336;28;20038;-77
2023/06/22 00:08:05;;;;;;;0.10;0.10;;;;;;;20.85;61.66;102047.69;5008345;28;20108;-77
2023/06/22 00:10:31;;;;;;;0.10;0.10;;;;;;;20.86;59.70;102046.75;5006978;28;20034;-77
2023/06/22 00:12:57;;;;;;;0.10;0.10;;;;;;;20.85;61.81;102045.84;5010143;28;20042;-77
2023/06/22 00:15:24;;;;;;;0.75;0.75;;;;;;;20.87;61.00;102042.22;5009686;28;20026;-77
2023/06/22 00:17:51;;;;;;;0.10;0.10;;;;;;;20.87;60.30;102040.38;5009497;28;20094;-76
2023/06/22 00:20:18;;;;;;;0.10;0.10;;;;;;;20.85;60.62;102037.75;5008858;28;20457;-76
2023/06/22 00:22:44;;;;;;;0.10;0.10;;;;;;;20.83;61.37;102036.94;5004773;28;20029;-76
2023/06/22 00:25:11;;;;;;;0.05;0.05;;;;;;;20.81;60.40;102035.25;5008530;28;20033;-77
2023/06/22 00:27:37;;;;;;;0.10;0.10;;;;;;;20.79;61.34;102034.47;5007237;28;20038;-78
2023/06/22 00:30:04;;;;;;;0.00;0.00;;;;;;;20.78;61.27;102032.72;5009835;28;20026;-77
2023/06/22 00:32:30;;;;;;;0.10;0.10;;;;;;;20.77;60.45;102025.59;5010349;28;20034;-78
2023/06/22 00:34:56;;;;;;;0.20;0.20;;;;;;;20.74;60.87;102021.22;5009234;28;20034;-78
2023/06/22 00:37:25;;;;;;;0.13;0.13;;;;;;;20.72;60.29;102017.69;5008737;28;20097;-77
2023/06/22 00:39:51;;;;;;;0.10;0.10;;;;;;;20.71;61.38;102018.66;5011921;28;20029;-77
2023/06/22 00:42:18;;;;;;;0.00;0.00;;;;;;;20.72;60.60;102019.53;5012956;28;20113;-78
2023/06/22 00:44:44;;;;;;;0.15;0.15;;;;;;;20.71;61.19;102012.34;5011600;28;20095;-78
2023/06/22 00:47:13;;;;;;;0.20;0.20;;;;;;;20.69;61.63;102013.28;5008778;28;20113;-77
2023/06/22 00:49:39;;;;;;;0.17;0.17;;;;;;;20.68;61.99;102006.16;5008183;28;20036;-77
2023/06/22 00:52:13;;;;;;;0.00;0.00;;;;;;;20.67;61.06;102009.81;5010460;28;20483;-78
2023/06/22 00:54:45;;;;;;;0.10;0.10;;;;;;;20.67;61.67;102009.81;5013194;28;20428;-78
2023/06/22 00:57:15;;;;;;;0.10;0.10;;;;;;;20.67;61.26;102009.81;5012634;28;20478;-78
2023/06/22 00:59:44;;;;;;;0.00;0.00;;;;;;;20.66;60.41;102017.94;5014127;28;20062;-78
2023/06/22 01:02:10;;;;;;;0.00;0.00;;;;;;;20.64;61.50;102015.31;5012960;28;20537;-77
2023/06/22 01:04:38;;;;;;;0.00;0.00;;;;;;;20.63;61.28;102010.00;5013052;28;20474;-77
2023/06/22 01:07:31;;;;;;;3.20;0.45;;;;;;;20.68;60.62;102006.16;5012291;28;20025;-77
2023/06/22 01:10:22;;;;;;;0.10;0.10;;;;;;;20.64;61.11;102003.69;5013989;28;20451;-77
2023/06/22 01:12:53;;;;;;;0.00;0.00;;;;;;;20.63;60.91;102000.09;5006811;28;20088;-77
2023/06/22 01:15:41;;;;;;;0.10;0.10;;;;;;;20.68;60.94;102000.75;5015064;28;20134;-77
2023/06/22 01:18:09;;;;;;;0.10;0.10;;;;;;;20.61;60.54;101999.31;5014615;28;20057;-78
2023/06/22 01:20:37;;;;;;;0.10;0.10;;;;;;;20.59;61.31;102003.00;5016908;28;20061;-78
2023/06/22 01:23:28;;;;;;;0.10;0.10;;;;;;;20.62;61.24;101990.28;5016864;28;20404;-78
2023/06/22 01:28:58;;;;;;;0.00;0.00;;;;;;;20.53;61.14;102004.13;5081177;28;20390;-78
2023/06/22 01:31:29;;;;;;;0.88;0.73;;;;;;;20.50;61.63;101997.06;5065367;28;20070;-79
2023/06/22 01:34:01;;;;;;;0.00;0.00;;;;;;;20.47;60.78;101999.03;5065781;28;20025;-79
2023/06/22 01:36:29;;;;;;;0.10;0.10;;;;;;;20.46;61.17;101999.97;5059746;28;20025;-77
2023/06/22 01:38:58;;;;;;;0.22;0.22;;;;;;;20.45;62.10;102004.47;5053252;28;20082;-78
2023/06/22 01:41:27;;;;;;;0.30;0.30;;;;;;;20.45;62.04;102008.97;5062389;28;20025;-78
2023/06/22 01:43:55;;;;;;;0.20;0.20;;;;;;;20.42;61.39;102001.03;5059406;28;20052;-78
2023/06/22 01:46:22;;;;;;;0.10;0.10;;;;;;;20.38;61.70;101992.22;5050414;28;20033;-78
2023/06/22 01:48:49;;;;;;;0.20;0.20;;;;;;;20.34;62.04;101993.31;5054932;28;20033;-78
2023/06/22 01:51:16;;;;;;;2.10;0.85;;;;;;;20.33;62.68;102000.47;5056593;28;20403;-78
2023/06/22 01:53:42;;;;;;;0.10;0.10;;;;;;;20.32;63.03;101998.72;5050820;28;20044;-78
2023/06/22 01:56:09;;;;;;;0.10;0.10;;;;;;;20.31;62.02;101996.09;5053836;28;20494;-77
2023/06/22 01:58:42;;;;;;;0.20;0.20;;;;;;;20.30;63.44;101995.25;5052728;28;20063;-78
2023/06/22 02:01:12;;;;;;;0.10;0.10;;;;;;;20.28;63.31;101989.03;5046933;28;20120;-78
2023/06/22 02:03:44;;;;;;;0.10;0.10;;;;;;;20.28;62.88;101994.44;5053347;28;20084;-80
2023/06/22 02:06:19;;;;;;;0.38;0.38;;;;;;;20.27;63.37;101991.81;5052193;28;20036;-79
2023/06/22 02:08:50;;;;;;;0.20;0.20;;;;;;;20.23;62.39;101999.13;5051533;28;20506;-79
2023/06/22 02:11:18;;;;;;;0.65;0.65;;;;;;;20.19;63.46;102005.59;5052922;28;20033;-78
2023/06/22 02:13:45;;;;;;;0.52;0.52;;;;;;;20.15;63.51;102002.16;5051694;28;20048;-78
2023/06/22 02:16:13;;;;;;;0.25;0.25;;;;;;;20.14;63.83;101988.78;5053353;28;20025;-78
2023/06/22 02:18:45;;;;;;;0.10;0.10;;;;;;;20.14;64.00;101991.47;5051166;28;20025;-78
2023/06/22 02:21:11;;;;;;;0.30;0.30;;;;;;;20.12;63.72;101987.94;5047775;28;20029;-78
2023/06/22 02:23:37;;;;;;;0.10;0.10;;;;;;;20.10;63.49;101987.13;5052251;28;20056;-77
2023/06/22 02:26:04;;;;;;;0.20;0.20;;;;;;;20.10;63.64;101984.44;5049869;28;20076;-78
2023/06/22 02:28:30;;;;;;;0.35;0.35;;;;;;;20.08;63.85;101978.28;5050508;28;20033;-77
2023/06/22 02:30:56;;;;;;;0.15;0.15;;;;;;;20.04;64.82;101983.75;5051102;28;20037;-78
2023/06/22 02:33:22;;;;;;;0.10;0.10;;;;;;;20.04;63.94;101978.38;5051802;28;20029;-77
2023/06/22 02:35:48;;;;;;;0.13;0.13;;;;;;;20.04;63.68;101975.69;5051393;28;20179;-78
2023/06/22 02:38:15;;;;;;;0.00;0.00;;;;;;;20.04;63.81;101978.38;5048129;28;20060;-79
2023/06/22 02:40:41;;;;;;;0.10;0.10;;;;;;;20.04;63.77;101982.91;5038483;28;20089;-78
2023/06/22 02:43:07;;;;;;;0.10;0.10;;;;;;;20.04;64.10;101985.59;5038557;28;20089;-79
2023/06/22 02:45:33;;;;;;;0.10;0.10;;;;;;;20.04;63.81;101983.75;5038074;28;20029;-79
2023/06/22 02:48:00;;;;;;;0.10;0.10;;;;;;;20.04;63.65;101989.16;5038388;28;20025;-78
2023/06/22 02:50:26;;;;;;;0.08;0.08;;;;;;;20.03;63.28;101984.69;5044202;28;20034;-78
2023/06/22 02:52:52;;;;;;;0.00;0.00;;;;;;;20.03;63.72;101986.53;5036172;28;20036;-79
2023/06/22 02:55:18;;;;;;;0.20;0.20;;;;;;;20.01;64.48;101989.28;5038408;28;20036;-78
2023/06/22 02:57:46;;;;;;;0.00;0.00;;;;;;;20.00;64.05;101987.53;5045811;28;20166;-78
2023/06/22 03:00:17;;;;;;;0.10;0.10;;;;;;;19.99;63.75;101999.22;5053513;28;20486;-77
2023/06/22 03:02:47;;;;;;;0.43;0.17;;;;;;;20.00;64.11;102000.97;5046649;28;20037;-77
2023/06/22 03:05:15;;;;;;;0.30;0.30;;;;;;;19.95;64.89;101999.41;5058714;28;20036;-77
2023/06/22 03:07:41;;;;;;;0.50;0.50;;;;;;;19.94;64.61;101993.16;5050120;28;20021;-78
2023/06/22 03:10:10;;;;;;;0.47;0.47;;;;;;;19.94;64.78;101994.97;5055660;28;20642;-77
2023/06/22 03:12:38;;;;;;;0.52;0.52;;;;;;;19.91;65.36;101997.78;5039509;28;20032;-78
2023/06/22 03:15:05;;;;;;;0.70;0.70;;;;;;;19.88;64.83;101996.97;5052367;28;20397;-78
2023/06/22 03:17:32;;;;;;;0.20;0.20;;;;;;;19.85;64.31;101989.03;5046696;28;20025;-78
2023/06/22 03:19:58;;;;;;;1.60;0.45;;;;;;;19.84;64.50;101976.53;5037602;28;20049;-77
2023/06/22 03:22:24;;;;;;;0.00;0.00;;;;;;;19.83;63.97;101973.91;5038692;28;20494;-78
2023/06/22 03:24:50;;;;;;;0.03;0.03;;;;;;;19.80;64.90;101972.19;5038313;28;20383;-78
2023/06/22 03:27:16;;;;;;;0.10;0.10;;;;;;;19.77;65.15;101964.22;5035701;28;20036;-78
2023/06/22 03:29:42;;;;;;;0.10;0.10;;;;;;;19.75;64.42;101957.16;5036432;28;20094;-79
2023/06/22 03:32:08;;;;;;;0.10;0.10;;;;;;;19.72;64.83;101961.72;5034157;28;20383;-78
2023/06/22 03:34:35;;;;;;;0.10;0.10;;;;;;;19.70;64.90;101960.94;5035705;28;20487;-78
2023/06/22 03:37:02;;;;;;;1.75;1.13;;;;;;;19.69;65.99;101967.25;5033852;28;20232;-78
2023/06/22 03:39:29;;;;;;;0.25;0.25;;;;;;;19.70;64.85;101968.09;5036439;28;20079;-78
2023/06/22 03:41:55;;;;;;;0.00;0.00;;;;;;;19.69;65.03;101961.00;5035099;28;20034;-78
2023/06/22 03:44:21;;;;;;;0.10;0.10;;;;;;;19.69;65.79;101955.63;5036001;28;20248;-78
2023/06/22 03:46:47;;;;;;;0.60;0.60;;;;;;;19.69;65.53;101955.63;5029158;28;20029;-78
2023/06/22 03:49:13;;;;;;;0.20;0.20;;;;;;;19.69;66.14;101955.63;5035365;28;20033;-79
2023/06/22 03:51:39;;;;;;;0.20;0.20;;;;;;;19.69;66.14;101959.16;5032293;28;20064;-79
2023/06/22 03:54:05;;;;;;;0.10;0.10;;;;;;;19.69;66.01;101950.25;5035898;28;20037;-78
2023/06/22 03:56:31;;;;;;;0.10;0.10;;;;;;;19.70;65.75;101951.97;5035790;28;20033;-79
2023/06/22 03:58:57;;;;;;;0.10;0.10;;;;;;;19.72;66.08;101959.03;5034376;28;20044;-79
2023/06/22 04:01:23;;;;;;;0.00;0.00;;;;;;;19.73;65.50;101952.72;5038323;28;20033;-79
2023/06/22 04:03:50;;;;;;;0.10;0.10;;;;;;;19.74;65.72;101945.53;5037278;28;20033;-79
2023/06/22 04:06:16;;;;;;;0.10;0.10;;;;;;;19.76;65.56;101948.16;5036648;28;20040;-77
2023/06/22 04:08:42;;;;;;;0.20;0.20;;;;;;;19.77;65.45;101947.22;5036489;28;20033;-79
2023/06/22 04:11:08;;;;;;;0.55;0.55;;;;;;;19.78;65.86;101946.28;5035383;28;20033;-78
2023/06/22 04:13:34;;;;;;;0.10;0.10;;;;;;;19.81;65.46;101943.47;5035853;28;20095;-78
2023/06/22 04:16:01;;;;;;;0.88;0.80;;;;;;;19.83;66.24;101941.63;5037494;28;20427;-79
2023/06/22 04:18:27;;;;;;;1.25;0.40;;;;;;;19.85;65.51;101939.72;5035647;28;20086;-78
2023/06/22 04:20:53;;;;;;;0.10;0.10;;;;;;;19.87;65.69;101937.88;5033790;28;20087;-79
2023/06/22 04:23:19;;;;;;;0.10;0.10;;;;;;;19.91;65.89;101938.63;5035282;28;20025;-78
2023/06/22 04:25:45;;;;;;;0.10;0.10;;;;;;;19.92;65.92;101941.22;5033267;28;20111;-79
2023/06/22 04:28:12;;;;;;;0.10;0.10;;;;;;;19.95;65.80;101934.84;5035800;28;20037;-79
2023/06/22 04:30:46;;;;;;;0.10;0.10;;;;;;;19.99;65.70;101948.13;5036046;28;20033;-79
2023/06/22 04:33:14;;;;;;;0.80;0.75;;;;;;;20.02;66.42;101939.03;5043401;28;20029;-79
2023/06/22 04:35:41;;;;;;;0.10;0.10;;;;;;;20.04;66.55;101943.41;5044775;28;20091;-80
2023/06/22 04:38:08;;;;;;;0.10;0.10;;;;;;;20.08;66.76;101946.00;5044068;28;20028;-78
2023/06/22 04:40:34;;;;;;;0.52;0.52;;;;;;;20.12;66.26;101953.84;5044907;28;20044;-79
2023/06/22 04:43:02;;;;;;;0.32;0.32;;;;;;;20.16;66.28;101951.91;5046234;28;20037;-79
2023/06/22 04:45:29;;;;;;;0.20;0.20;;;;;;;20.20;66.63;101950.84;5044995;28;20056;-80
2023/06/22 04:47:55;;;;;;;0.30;0.30;;;;;;;20.22;66.37;101959.72;5053073;28;20088;-80
2023/06/22 04:50:23;;;;;;;0.10;0.10;;;;;;;20.26;65.85;101955.97;5048061;28;20041;-78
2023/06/22 04:52:50;;;;;;;0.10;0.10;;;;;;;20.30;66.48;101962.06;5054136;28;20032;-78
2023/06/22 04:55:18;;;;;;;0.30;0.30;;;;;;;20.34;66.85;101969.94;5045473;28;20029;-79
2023/06/22 04:57:48;;;;;;;0.65;0.65;;;;;;;20.36;66.28;101956.41;5056604;28;20049;-79
2023/06/22 05:00:17;;;;;;;0.00;0.00;;;;;;;20.39;66.24;101956.28;5062039;28;20040;-79
2023/06/22 05:02:45;;;;;;;0.77;0.77;;;;;;;20.43;67.22;101951.66;5046953;28;20028;-80
2023/06/22 05:05:13;;;;;;;1.13;0.52;;;;;;;20.44;66.92;101948.03;5049222;28;21166;-80
2023/06/22 05:07:44;;;;;;;0.10;0.10;;;;;;;20.48;66.90;101955.00;5052484;28;20025;-78
2023/06/22 05:10:12;;;;;;;0.38;0.38;;;;;;;20.49;66.95;101959.47;5043824;28;20029;-78
2023/06/22 05:12:39;;;;;;;0.10;0.10;;;;;;;20.51;66.17;101961.13;5061324;28;20032;-80
2023/06/22 05:15:07;;;;;;;0.10;0.10;;;;;;;20.56;66.51;101958.25;5042736;28;20081;-80
2023/06/22 05:17:33;;;;;;;0.30;0.30;;;;;;;20.60;66.53;101958.97;5059668;28;20021;-79
2023/06/22 05:19:59;;;;;;;0.10;0.10;;;;;;;20.62;66.24;101955.28;5056763;28;20037;-77
2023/06/22 05:22:25;;;;;;;0.10;0.10;;;;;;;20.67;65.53;101953.25;5043128;28;20033;-79
2023/06/22 05:24:52;;;;;;;0.13;0.13;;;;;;;20.70;64.92;101965.72;5050927;28;20025;-78
2023/06/22 05:27:18;;;;;;;0.20;0.20;;;;;;;20.72;65.34;101954.88;5042121;28;20180;-79
2023/06/22 05:29:44;;;;;;;0.10;0.10;;;;;;;20.79;65.69;101953.69;5040626;28;20076;-79
2023/06/22 05:32:10;;;;;;;0.10;0.10;;;;;;;20.87;65.45;101951.47;5042039;28;20059;-78
2023/06/22 05:34:37;;;;;;;0.10;0.10;;;;;;;20.96;65.33;101956.47;5041977;28;20026;-77
2023/06/22 05:37:03;;;;;;;0.10;0.10;;;;;;;21.06;65.84;101953.34;5040884;28;20031;-79
2023/06/22 05:39:29;;;;;;;0.03;0.03;;;;;;;21.14;65.73;101943.94;5040645;28;20491;-77
2023/06/22 05:41:55;;;;;;;0.20;0.20;;;;;;;21.18;67.07;101950.06;5029291;28;20060;-77
2023/06/22 05:44:21;;;;;;;0.10;0.10;;;;;;;21.24;65.95;101947.06;5035261;28;20590;-78
2023/06/22 05:46:48;;;;;;;0.20;0.20;;;;;;;21.25;66.07;101954.22;5030137;28;20052;-79
2023/06/22 05:49:15;;;;;;;0.10;0.10;;;;;;;21.32;64.88;101953.00;5043017;28;20021;-78
2023/06/22 05:51:42;;;;;;;8.50;1.25;;;;;;;21.38;65.43;101951.81;5032707;28;20112;-77
2023/06/22 05:54:08;;;;;;;0.00;0.00;;;;;;;21.44;65.10;101956.91;5034125;28;20063;-78
2023/06/22 05:56:34;;;;;;;0.10;0.10;;;;;;;21.50;65.47;101951.22;5034242;28;20684;-77
2023/06/22 05:59:01;;;;;;;0.10;0.10;;;;;;;21.57;65.24;101950.94;5041276;28;20021;-78
2023/06/22 06:01:27;;;;;;;0.10;0.10;;;;;;;21.62;65.49;101952.47;5054957;28;20099;-78
2023/06/22 06:03:53;;;;;;;0.17;0.17;;;;;;;21.72;65.29;101960.09;5043789;28;20112;-77
2023/06/22 06:06:21;;;;;;;0.22;0.22;;;;;;;21.78;65.30;101954.41;5031805;28;20037;-78
2023/06/22 06:08:47;;;;;;;0.20;0.20;;;;;;;21.85;64.96;101955.00;5038613;28;20121;-78
2023/06/22 06:11:14;;;;;;;0.38;0.38;;;;;;;21.89;64.83;101954.75;5029093;28;20046;-78
2023/06/22 06:13:40;;;;;;;0.43;0.20;;;;;;;21.92;64.46;101951.91;5039816;28;20044;-78
2023/06/22 06:16:06;;;;;;;0.10;0.10;;;;;;;21.97;64.45;101944.44;5044644;28;20036;-78
2023/06/22 06:18:32;;;;;;;0.80;0.32;;;;;;;22.04;64.45;101942.31;5038021;28;20026;-78
2023/06/22 06:20:58;;;;;;;0.10;0.10;;;;;;;22.12;64.16;101941.94;5048987;28;20036;-79
2023/06/22 06:23:24;;;;;;;0.10;0.10;;;;;;;22.19;64.27;101937.09;5050993;28;20024;-79
2023/06/22 06:25:50;;;;;;;0.08;0.08;;;;;;;22.28;64.20;101942.00;5038912;28;20033;-77
2023/06/22 06:28:16;;;;;;;0.10;0.10;;;;;;;22.38;64.11;101947.81;5054754;28;20112;-78
2023/06/22 06:30:42;;;;;;;0.65;0.65;;;;;;;22.46;63.74;101938.34;5055945;28;20050;-78
2023/06/22 06:33:09;;;;;;;0.10;0.10;;;;;;;22.55;63.98;101934.28;5038772;28;20456;-79
2023/06/22 06:35:35;;;;;;;0.15;0.15;;;;;;;22.64;63.87;101932.94;5037682;28;20030;-78
2023/06/22 06:38:02;;;;;;;0.20;0.20;;;;;;;22.73;63.17;101927.03;5043941;28;20025;-79
2023/06/22 06:40:28;;;;;;;0.10;0.10;;;;;;;22.81;62.65;101918.50;5031848;28;20038;-77
2023/06/22 06:42:54;;;;;;;0.10;0.10;;;;;;;22.89;62.65;101916.28;5044978;28;20033;-79
2023/06/22 06:45:23;;;;;;;0.00;0.00;;;;;;;22.99;62.62;101915.75;5039206;28;20037;-79
2023/06/22 06:47:51;;;;;;;0.05;0.05;;;;;;;23.10;62.57;101918.72;5030359;28;20029;-79
2023/06/22 06:50:17;;;;;;;0.30;0.30;;;;;;;23.18;61.97;101919.22;5038818;28;20059;-78
2023/06/22 06:52:44;;;;;;;0.10;0.10;;;;;;;23.27;61.96;101917.81;5046383;28;20473;-79
2023/06/22 06:55:11;;;;;;;0.25;0.25;;;;;;;23.35;62.00;101917.38;5046079;28;20083;-79
2023/06/22 06:57:39;;;;;;;0.00;0.00;;;;;;;23.42;61.78;101924.19;5037915;28;20036;-79
2023/06/22 07:00:10;;;;;;;0.10;0.10;;;;;;;23.47;61.40;101919.38;5038979;28;20731;-79
2023/06/22 07:02:39;;;;;;;0.00;0.00;;;;;;;23.49;61.28;101920.16;5040784;28;20521;-79
2023/06/22 07:05:06;;;;;;;0.10;0.10;;;;;;;23.51;61.23;101910.09;5043700;28;20116;-79
2023/06/22 07:07:32;;;;;;;0.13;0.13;;;;;;;23.54;61.08;101918.06;5037190;28;20068;-79
2023/06/22 07:09:59;;;;;;;0.03;0.03;;;;;;;23.56;61.14;101905.34;5038562;28;20037;-79
2023/06/22 07:12:25;;;;;;;0.10;0.10;;;;;;;23.62;60.90;101900.53;5037704;28;20037;-79
2023/06/22 07:14:52;;;;;;;0.10;0.10;;;;;;;23.65;60.30;101903.03;5038080;28;20095;-79
2023/06/22 07:17:18;;;;;;;0.25;0.25;;;;;;;23.67;60.17;101904.69;5037235;28;20562;-78
2023/06/22 07:19:45;;;;;;;0.30;0.30;;;;;;;23.71;59.75;101899.97;5036621;28;20033;-79
2023/06/22 07:22:11;;;;;;;0.10;0.10;;;;;;;23.77;60.04;101890.63;5032962;28;20069;-81
2023/06/22 07:24:37;;;;;;;0.98;0.60;;;;;;;23.80;60.08;101887.72;5038040;28;20029;-81
2023/06/22 07:27:06;;;;;;;0.00;0.00;;;;;;;23.85;60.03;101891.03;5034698;28;20061;-80
2023/06/22 07:29:33;;;;;;;1.95;0.50;;;;;;;23.94;59.73;101886.94;5036614;28;20041;-80
2023/06/22 07:32:00;;;;;;;1.48;0.95;;;;;;;23.95;59.27;101888.66;5036709;28;20022;-79
2023/06/22 07:34:26;;;;;;;0.10;0.10;;;;;;;24.03;59.40;101891.81;5030046;28;20402;-79
2023/06/22 07:36:53;;;;;;;0.30;0.30;;;;;;;24.09;59.20;101901.38;5033790;28;20397;-79
2023/06/22 07:39:22;;;;;;;0.43;0.40;;;;;;;24.13;59.02;101900.25;5035535;28;20491;-79
2023/06/22 07:41:48;;;;;;;0.13;0.13;;;;;;;24.17;58.26;101901.78;5026908;28;20487;-79
2023/06/22 07:44:14;;;;;;;0.10;0.10;;;;;;;24.22;57.98;101896.97;5034781;28;20355;-78
2023/06/22 07:46:40;;;;;;;0.30;0.30;;;;;;;24.30;57.97;101893.78;5033772;28;20513;-80
2023/06/22 07:49:08;;;;;;;0.22;0.22;;;;;;;24.36;58.82;101887.97;5034746;28;20487;-79
2023/06/22 07:51:34;;;;;;;0.20;0.20;;;;;;;24.48;58.47;101873.66;5026515;28;20567;-79
2023/06/22 07:54:00;;;;;;;0.20;0.20;;;;;;;24.55;58.35;101876.88;5023193;28;20048;-78
2023/06/22 07:56:26;;;;;;;0.22;0.22;;;;;;;24.63;58.28;101873.69;5030967;28;20040;-79
2023/06/22 07:58:53;;;;;;;0.00;0.00;;;;;;;24.68;58.72;101866.16;5034160;28;20045;-79
2023/06/22 08:01:20;;;;;;;0.30;0.30;;;;;;;24.75;58.53;101872.94;5033136;28;20033;-78
2023/06/22 08:03:48;;;;;;;2.83;0.90;;;;;;;24.84;58.58;101869.63;5033989;28;20029;-79
2023/06/22 08:06:14;;;;;;;1.73;1.05;;;;;;;24.94;58.63;101861.78;5032836;28;20036;-79
2023/06/22 08:08:42;;;;;;;0.10;0.10;;;;;;;25.06;58.46;101867.34;5034118;28;20026;-79
2023/06/22 08:11:09;;;;;;;0.20;0.20;;;;;;;25.16;58.03;101860.34;5034213;28;20041;-78
2023/06/22 08:13:35;;;;;;;0.47;0.47;;;;;;;25.18;57.24;101862.03;5035763;28;20506;-78
2023/06/22 08:16:01;;;;;;;0.20;0.20;;;;;;;25.22;57.81;101850.94;5032937;28;20033;-79
2023/06/22 08:18:28;;;;;;;0.55;0.55;;;;;;;25.23;57.50;101845.41;5034890;28;20034;-79
2023/06/22 08:20:54;;;;;;;0.10;0.10;;;;;;;25.35;57.62;101849.16;5032417;28;20042;-79
2023/06/22 08:23:20;;;;;;;1.02;0.90;;;;;;;25.43;57.36;101844.13;5021695;28;20494;-80
2023/06/22 08:25:47;;;;;;;0.10;0.10;;;;;;;25.48;57.33;101843.81;5020320;28;20059;-79
2023/06/22 08:28:14;;;;;;;0.10;0.10;;;;;;;25.57;56.78;101842.31;5023716;28;20025;-79
2023/06/22 08:30:40;;;;;;;0.10;0.10;;;;;;;25.71;56.70;101847.69;5024581;28;20095;-79
2023/06/22 08:33:06;;;;;;;0.30;0.30;;;;;;;25.84;56.70;101840.44;5027610;28;20120;-79
2023/06/22 08:35:32;;;;;;;0.17;0.17;;;;;;;25.97;55.86;101839.56;5023478;28;20030;-79
2023/06/22 08:37:59;;;;;;;0.10;0.10;;;;;;;26.05;55.08;101831.75;5026441;28;20041;-78
2023/06/22 08:40:26;;;;;;;0.00;0.00;;;;;;;26.15;54.89;101827.44;5030119;28;20041;-78
2023/06/22 08:42:52;;;;;;;14.23;0.50;;;;;;;26.22;54.98;101821.56;5023017;28;20022;-79
2023/06/22 08:45:19;;;;;;;0.90;0.90;;;;;;;26.32;54.40;101823.53;5031276;28;20044;-79
2023/06/22 08:47:45;;;;;;;0.20;0.20;;;;;;;26.44;53.52;101829.94;5029977;28;20035;-79
2023/06/22 08:50:13;;;;;;;0.17;0.17;;;;;;;26.47;52.50;101829.72;5026932;28;20063;-79
2023/06/22 08:52:41;;;;;;;0.43;0.43;;;;;;;26.54;51.99;101832.00;5026128;28;20533;-79
2023/06/22 08:55:08;;;;;;;0.20;0.20;;;;;;;26.65;51.88;101829.34;5027556;28;20029;-78
2023/06/22 08:57:37;;;;;;;0.10;0.10;;;;;;;26.73;52.72;101834.22;5029716;28;20091;-79
2023/06/22 09:00:05;;;;;;;0.35;0.35;;;;;;;26.75;52.87;101825.00;5030496;28;20090;-79
2023/06/22 09:02:31;;;;;;;0.13;0.13;;;;;;;26.78;53.00;101824.81;5033096;28;20029;-78
2023/06/22 09:04:58;;;;;;;0.20;0.20;;;;;;;26.84;52.32;101817.16;5030504;28;20108;-78
2023/06/22 09:07:25;;;;;;;0.10;0.10;;;;;;;26.93;52.89;101820.06;5037375;28;20041;-78
2023/06/22 09:09:52;;;;;;;0.10;0.10;;;;;;;27.04;51.99;101819.28;5041915;28;20033;-78
2023/06/22 09:12:25;;;;;;;1.80;0.28;;;;;;;27.21;51.72;101814.41;5035976;28;20028;-80
2023/06/22 09:14:51;;;;;;;0.10;0.10;;;;;;;27.29;50.99;101814.69;5033117;28;20040;-79
2023/06/22 09:17:17;;;;;;;0.10;0.10;;;;;;;27.41;51.28;101815.66;5044816;28;20029;-78
2023/06/22 09:19:43;;;;;;;0.25;0.25;;;;;;;27.43;49.66;101809.09;5032889;28;20089;-78
2023/06/22 09:22:09;;;;;;;0.20;0.20;;;;;;;27.57;51.05;101815.34;5035775;28;20049;-79
2023/06/22 09:24:36;;;;;;;0.10;0.10;;;;;;;27.68;50.69;101818.09;5034043;28;20040;-78
2023/06/22 09:27:02;;;;;;;0.20;0.20;;;;;;;27.75;50.78;101813.94;5035691;28;20040;-79
2023/06/22 09:29:28;;;;;;;0.28;0.28;;;;;;;27.79;49.46;101805.50;5037556;28;20021;-79
2023/06/22 09:31:55;;;;;;;0.00;0.00;;;;;;;27.83;49.69;101805.16;5035054;28;20402;-79
2023/06/22 09:34:21;;;;;;;0.10;0.10;;;;;;;27.88;49.54;101811.09;5035951;28;20068;-78
2023/06/22 09:36:48;;;;;;;0.40;0.40;;;;;;;27.98;49.63;101808.53;5033910;28;20049;-79
2023/06/22 09:39:14;;;;;;;0.35;0.35;;;;;;;28.04;49.90;101807.22;5035071;28;20041;-79
2023/06/22 09:41:40;;;;;;;0.30;0.30;;;;;;;28.09;48.14;101810.44;5036820;28;20053;-80
2023/06/22 09:44:06;;;;;;;0.17;0.17;;;;;;;28.15;49.12;101809.06;5036844;28;20041;-80
2023/06/22 09:46:32;;;;;;;0.10;0.10;;;;;;;28.14;48.36;101801.88;5036038;28;20033;-80
2023/06/22 09:48:58;;;;;;;0.25;0.25;;;;;;;28.12;48.79;101803.88;5035732;28;20035;-79
2023/06/22 09:51:24;;;;;;;0.10;0.10;;;;;;;28.06;48.98;101795.19;5036581;28;20041;-80
2023/06/22 09:53:52;;;;;;;0.30;0.30;;;;;;;28.09;49.30;101796.81;5037639;28;20034;-80
2023/06/22 09:56:18;;;;;;;0.20;0.20;;;;;;;28.09;48.56;101792.22;5036406;28;20502;-79
2023/06/22 09:58:46;;;;;;;0.20;0.20;;;;;;;28.12;48.49;101791.09;5036548;28;20451;-80
2023/06/22 10:01:14;;;;;;;0.60;0.55;;;;;;;28.20;48.92;101790.47;5036092;28;20456;-80
2023/06/22 10:03:41;;;;;;;0.10;0.10;;;;;;;28.22;47.56;101788.50;5038499;28;20403;-80
2023/06/22 10:06:08;;;;;;;0.30;0.30;;;;;;;28.23;47.30;101784.81;5036890;28;20032;-80
2023/06/22 10:08:35;;;;;;;0.10;0.10;;;;;;;28.28;48.34;101788.03;5030161;28;20060;-80
2023/06/22 10:11:02;;;;;;;1.55;0.75;;;;;;;28.32;48.45;101789.50;5036830;28;20071;-79
2023/06/22 10:13:28;;;;;;;0.10;0.10;;;;;;;28.34;47.66;101792.13;5037560;28;20034;-80
2023/06/22 10:15:55;;;;;;;0.30;0.30;;;;;;;28.34;48.50;101781.22;5035947;28;20068;-80
2023/06/22 10:18:21;;;;;;;0.17;0.17;;;;;;;28.27;47.15;101786.28;5035422;28;20384;-80
2023/06/22 10:20:51;;;;;;;0.10;0.10;;;;;;;28.27;47.54;101791.72;5036745;28;20033;-80
2023/06/22 10:23:17;;;;;;;0.10;0.10;;;;;;;28.30;48.40;101794.22;5037585;28;20519;-79
2023/06/22 10:25:43;;;;;;;0.98;0.60;;;;;;;28.29;48.20;101789.75;5036931;28;20128;-80
2023/06/22 10:28:09;;;;;;;0.20;0.20;;;;;;;28.26;48.11;101795.44;5036107;28;20037;-79
2023/06/22 10:30:36;;;;;;;0.38;0.38;;;;;;;28.18;47.69;101797.94;5035331;28;20036;-79
2023/06/22 10:33:02;;;;;;;0.40;0.40;;;;;;;28.11;48.11;101792.09;5035762;28;20087;-78
2023/06/22 10:35:28;;;;;;;0.70;0.55;;;;;;;28.08;47.29;101797.78;5034985;28;20645;-78
2023/06/22 10:37:54;;;;;;;0.10;0.10;;;;;;;28.00;47.39;101801.09;5035033;28;20775;-79
2023/06/22 10:40:20;;;;;;;0.00;0.00;;;;;;;27.94;48.36;101798.88;5038361;28;20029;-78
2023/06/22 10:42:46;;;;;;;0.20;0.20;;;;;;;27.86;47.64;101801.31;5037472;28;20083;-79
2023/06/22 10:45:13;;;;;;;0.08;0.08;;;;;;;27.79;47.09;101797.34;5033716;28;20029;-79
2023/06/22 10:47:41;;;;;;;0.10;0.10;;;;;;;27.73;47.82;101799.56;5035086;28;20025;-79
2023/06/22 10:50:08;;;;;;;0.05;0.05;;;;;;;27.64;47.97;101799.41;5037066;28;20040;-78
2023/06/22 10:52:34;;;;;;;0.08;0.08;;;;;;;27.59;48.10;101803.34;5035584;28;20233;-79
2023/06/22 10:55:00;;;;;;;0.43;0.43;;;;;;;27.56;48.45;101808.16;5037273;28;20671;-79
2023/06/22 10:57:26;;;;;;;0.45;0.45;;;;;;;27.53;48.18;101811.13;5033563;28;20649;-79
2023/06/22 10:59:52;;;;;;;0.30;0.30;;;;;;;27.51;49.02;101815.81;5035784;28;20518;-78
2023/06/22 11:02:18;;;;;;;0.63;0.63;;;;;;;27.49;49.18;101815.06;5035669;28;20045;-79
2023/06/22 11:04:45;;;;;;;0.10;0.10;;;;;;;27.49;49.38;101812.34;5036722;28;20042;-79
2023/06/22 11:07:12;;;;;;;0.03;0.03;;;;;;;27.51;49.55;101804.94;5035174;28;20095;-78
2023/06/22 11:09:39;;;;;;;0.15;0.15;;;;;;;27.50;49.48;101814.09;5039817;28;20029;-77
2023/06/22 11:12:06;;;;;;;0.28;0.28;;;;;;;27.48;50.07;101805.16;5040532;28;20035;-77
2023/06/22 11:14:33;;;;;;;0.10;0.10;;;;;;;27.45;49.58;101811.69;5036413;28;20045;-79
2023/06/22 11:16:59;;;;;;;0.17;0.17;;;;;;;27.41;49.96;101804.78;5034435;28;20033;-78
2023/06/22 11:19:25;;;;;;;0.00;0.00;;;;;;;27.40;50.25;101801.19;5036013;28;20063;-78
2023/06/22 11:21:51;;;;;;;0.25;0.25;;;;;;;27.39;50.46;101802.13;5035310;28;20503;-79
2023/06/22 11:24:18;;;;;;;0.05;0.05;;;;;;;27.40;51.19;101809.34;5035555;28;20032;-78
2023/06/22 11:26:44;;;;;;;2.63;1.08;;;;;;;27.33;50.66;101802.59;5035035;28;20102;-78